x

Stonewall Bank - 20nm West Of Newport, Or (46050) Wave Buoy

10:50am - Wed 23rd Jul 2014 All times are PDT. -7 hours from GMT.

  • Sig Wave height 3.9ft
  • Swell Direction
  • Peak Period 9s
  • Average Period 6s
  • Wind
    11mph, 13mph gusts
  • Sea Temp 58°f
  • Air Temp 56°f
  • Sea Pressure 1019mb
  • Stonewall Bank - 20nm West Of Newport, Or
  • Stonewall Bank - 20nm West Of Newport, Or

More Historic Weather Station data

Upgrade to MSW Pro to gain access to the past 30 days of data for over 8000 Wavebouys and Weather Stations around the globe.

Join Pro

Comparision Forecast

View Surf forecast
   
Wed 07/23 10:50am 4ft 9s 6s 11 13 mph 1019mb 58f 56f
9:50am 4.5ft 9s 6s 13 16 mph 1018.7mb 58f 56f
8:50am 4.5ft 9s 6s 4 7 mph 1018.2mb 57f 55f
7:50am 4ft 9s 5s 2 4 mph 1017.6mb 54f 55f
6:50am 4.5ft 6s 5s  -  2 mph 1017.2mb 52f 55f
5:50am 4.5ft 5s 5s 9 13 mph 1016.8mb 53f 55f
4:50am 4.5ft 5s 5s 11 18 mph 1016.8mb 53f 56f
3:50am 4.5ft 4s 5s 16 20 mph 1016.5mb 55f 55f
2:50am 4ft 10s 4s 16 20 mph 1016.8mb 56f 55f
1:50am 3.5ft 10s 5s 16 20 mph 1017mb 56f 56f
12:50am 3.5ft 10s 5s 13 16 mph 1017.3mb 56f 56f
Tue 07/22 11:50pm 3ft 11s 6s 11
mph
1017mb 56f 56f
10:50pm 3.5ft 10s 6s 7 11 mph 1017.1mb 56f 56f
9:50pm 3ft 11s 6s 9 11 mph 1017.1mb 56f 56f
8:50pm 3.5ft 11s 7s 9 11 mph 1017mb 58f 56f
7:50pm 2.5ft 10s 7s 9 11 mph 1017.2mb 56f 55f
6:50pm 3ft 10s 7s 4 7 mph 1016.6mb 57f 55f
5:50pm 3ft 9s 7s 2 7 mph 1017.1mb 57f 55f
4:50pm 3ft 8s 7s 4 7 mph 1017.6mb 57f 56f
3:50pm 3.5ft 11s 7s 4 7 mph 1017.8mb 56f 55f
2:50pm 3ft 10s 7s 7 9 mph 1018mb 56f 55f
1:50pm 3.5ft 11s 7s  -  4 mph 1018mb 56f 54f
12:50pm 3.5ft 11s 7s 7 9 mph 1018.2mb 56f 54f
11:50am 4ft 10s 7s 4 9 mph 1018.2mb 56f 54f
10:50am 4ft 11s 7s 4 7 mph 1017.9mb 56f 54f
9:50am 4ft 10s 7s  -  2 mph 1017.7mb 56f 56f
8:50am 4ft 10s 7s 4 7 mph 1017.7mb 56f 56f
7:50am 4.5ft 9s 7s 2 4 mph 1017.4mb 56f 56f
6:50am 4.5ft 8s 7s  -  2 mph 1017mb 56f 56f
5:50am 4ft 9s 7s 2 4 mph 1016.9mb 56f 56f
4:50am 4.5ft 10s 7s 2 4 mph 1017.1mb 57f 56f
3:50am 4.5ft 11s 7s  -  mph 1017mb 57f 56f
2:50am 4.5ft 8s 7s 4
mph
1017.3mb 57f 56f
1:50am 4.5ft 11s 7s  -  2 mph 1017.2mb 57f 58f
12:50am 4.5ft 9s 7s  -  2 mph 1017.3mb 57f 58f
Mon 07/21 11:50pm 4.5ft 11s 7s  -  mph 1017.4mb 57f 58f
10:50pm 4.5ft 9s 7s  -  mph 1017.4mb 57f 58f
9:50pm 4.5ft 9s 7s  -  2 mph 1017.2mb 57f 59f
8:50pm 5ft 10s 7s 2
mph
1016.4mb 57f 60f
7:50pm 5ft 8s 7s 4
mph
1016.3mb 57f 60f
6:50pm 5ft 10s 7s 4
mph
1016.4mb 57f 60f
5:50pm 5.5ft 10s 7s 4 7 mph 1016.4mb 57f 60f
4:50pm 5ft 10s 7s 7 9 mph 1016.3mb 58f 60f
3:50pm 5ft 9s 7s 9
mph
1016.6mb 58f 60f
2:50pm 5ft 10s 7s 4 7 mph 1016.9mb 56f 59f
1:50pm 5.5ft 10s 7s 7
mph
1016.7mb 56f 59f
12:50pm 5.5ft 10s 7s 4 7 mph 1016.9mb 55f 58f
11:50am 5.5ft 9s 7s 7
mph
1016.9mb 55f 57f
10:50am 6ft 10s 7s  -  2 mph 1017.2mb 55f 56f
9:50am 6ft 10s 7s 2 4 mph 1017mb 54f 55f
8:50am 6ft 11s 7s 4 7 mph 1017.2mb 54f 56f
7:50am 6ft 10s 7s 7 9 mph 1017.1mb 54f 57f
6:50am 6ft 10s 8s 7
mph
1016.7mb 54f 57f
5:50am 5.5ft 9s 7s 7
mph
1016.4mb 55f 57f
4:50am 6ft 11s 7s 4
mph
1016.3mb 55f 57f
3:50am 6ft 10s 7s 2 4 mph 1016.2mb 55f 57f
2:50am 6ft 11s 7s 7
mph
1016.2mb 55f 58f
1:50am 6ft 11s 7s 4
mph
1016.5mb 55f 58f
12:50am 7ft 10s 7s 9 11 mph 1016.2mb 55f 59f
Sun 07/20 11:50pm 6ft 11s 7s 7 9 mph 1016.4mb 55f 59f
10:50pm 7ft 10s 7s 11 13 mph 1016.2mb 56f 59f
9:50pm 7.5ft 10s 7s 9 11 mph 1016.2mb 56f 59f
8:50pm 8ft 11s 8s 11 13 mph 1015.8mb 56f 60f
7:50pm 8ft 11s 8s 11
mph
1015.8mb 55f 60f
6:50pm 8ft 11s 8s 9 11 mph 1015.6mb 55f 60f
5:50pm 7ft 11s 8s 9 11 mph 1015.5mb 56f 60f
4:50pm 8ft 10s 8s 7 9 mph 1015.8mb 56f 60f
3:50pm 7.5ft 11s 8s 7 9 mph 1016.2mb 56f 60f
2:50pm 7ft 10s 8s 2
mph
1016.5mb 56f 59f
1:50pm 7ft 10s 7s 4
mph
1016.8mb 56f 59f
12:50pm 7ft 10s 7s 4 7 mph 1016.8mb 55f 59f
11:50am 7.5ft 10s 7s  -  4 mph 1017mb 55f 59f
10:50am 7ft 10s 7s 4
mph
1016.8mb 54f 57f
9:50am 7ft 10s 7s 2 4 mph 1016.5mb 53f 57f
8:50am 7ft 10s 7s 7 9 mph 1016.3mb 53f 57f
7:50am 6ft 10s 7s 7 9 mph 1016.2mb 53f 58f
6:50am 6ft 9s 7s 7 9 mph 1016mb 53f 58f
5:50am 6ft 10s 7s 2 4 mph 1016mb 53f 58f
4:50am 6ft 10s 7s 9 11 mph 1015.8mb 53f 58f
3:50am 6.5ft 9s 7s 4 7 mph 1015.9mb 53f 57f
2:50am 6ft 9s 7s 7
mph
1016.1mb 54f 58f
1:50am 5.5ft 9s 7s 11 13 mph 1016.4mb 54f 58f
12:50am 6.5ft 9s 7s 2 4 mph 1016.6mb 54f 57f
Sat 07/19 11:50pm 5ft 8s 7s 4 9 mph 1016.8mb 54f 57f
10:50pm 5.5ft 9s 7s 7
mph
1017mb 53f 58f
9:50pm 5ft 8s 7s  -  4 mph 1017.2mb 54f 58f
8:50pm 5ft 9s 7s 2 7 mph 1017mb 55f 59f
7:50pm 5ft 9s 7s 9 13 mph 1017.1mb 56f 59f